Time;durP1;ratioP1;P1;durP2;ratioP2;P2;SDS_P1;SDS_P2;PMS_P1;PMS_P2;Temp;Humidity;BMP_temperature;BMP_pressure;BME280_temperature;BME280_humidity;BME280_pressure;Samples;Min_cycle;Max_cycle;Signal;HPM_P1;HPM_P2
2024/01/01 00:00:15;;;;;;;18.45;9.75;;;;;;;;;;4967706;28;20061;-77
2024/01/01 00:02:41;;;;;;;19.60;8.85;;;;;;;;;;4986046;28;20046;-79
2024/01/01 00:05:07;;;;;;;17.15;8.60;;;;;;;;;;4959199;28;20084;-77
2024/01/01 00:07:33;;;;;;;13.50;6.63;;;;;;;;;;4961779;28;20061;-78
2024/01/01 00:09:58;;;;;;;15.02;6.30;;;;;;;;;;4994444;28;20038;-79
2024/01/01 00:12:23;;;;;;;10.45;6.20;;;;;;;;;;4993206;28;20641;-77
2024/01/01 00:14:49;;;;;;;6.85;4.15;;;;;;;;;;4996357;28;20057;-78
2024/01/01 00:17:17;;;;;;;11.35;4.75;;;;;;;;;;4973390;28;20035;-78
2024/01/01 00:19:42;;;;;;;9.38;3.83;;;;;;;;;;4976150;28;20028;-77
2024/01/01 00:22:08;;;;;;;6.93;3.60;;;;;;;;;;4957623;28;20029;-77
2024/01/01 00:24:33;;;;;;;5.25;3.60;;;;;;;;;;4956819;28;20499;-78
2024/01/01 00:26:59;;;;;;;6.00;3.25;;;;;;;;;;4976262;28;20065;-77
2024/01/01 00:29:27;;;;;;;5.60;3.75;;;;;;;;;;4959221;28;20071;-77
2024/01/01 00:31:52;;;;;;;5.35;3.40;;;;;;;;;;4973948;28;20035;-77
2024/01/01 00:34:18;;;;;;;4.18;2.10;;;;;;;;;;4957075;28;20035;-77
2024/01/01 00:36:43;;;;;;;3.63;2.47;;;;;;;;;;4975926;28;20058;-77
2024/01/01 00:39:09;;;;;;;4.38;2.88;;;;;;;;;;4979205;28;20066;-77
2024/01/01 00:41:36;;;;;;;2.47;1.90;;;;;;;;;;4976594;28;20142;-77
2024/01/01 00:44:02;;;;;;;5.85;2.33;;;;;;;;;;4976138;28;20038;-78
2024/01/01 00:46:28;;;;;;;3.25;2.00;;;;;;;;;;4975620;28;20578;-78
2024/01/01 00:48:53;;;;;;;2.65;1.92;;;;;;;;;;4961120;28;20034;-78
2024/01/01 00:51:18;;;;;;;2.28;1.65;;;;;;;;;;4960592;28;20121;-78
2024/01/01 00:53:44;;;;;;;2.78;1.58;;;;;;;;;;4945036;28;20027;-78
2024/01/01 00:56:09;;;;;;;3.50;2.20;;;;;;;;;;4961173;28;20035;-77
2024/01/01 00:58:34;;;;;;;3.30;2.20;;;;;;;;;;4978669;28;20130;-79
2024/01/01 01:00:59;;;;;;;3.40;1.88;;;;;;;;;;4978310;28;20034;-78
2024/01/01 01:03:25;;;;;;;2.03;1.77;;;;;;;;;;4978163;28;20030;-77
2024/01/01 01:05:50;;;;;;;3.95;2.22;;;;;;;;;;4995450;28;20065;-78
2024/01/01 01:08:15;;;;;;;2.15;1.85;;;;;;;;;;4997618;28;20459;-77
2024/01/01 01:10:41;;;;;;;2.97;1.92;;;;;;;;;;4979627;28;20097;-77
2024/01/01 01:13:06;;;;;;;5.25;2.17;;;;;;;;;;4997486;28;20537;-77
2024/01/01 01:15:32;;;;;;;5.22;2.25;;;;;;;;;;4997672;28;20061;-77
2024/01/01 01:17:57;;;;;;;4.25;1.95;;;;;;;;;;4997738;28;20034;-77
2024/01/01 01:20:22;;;;;;;2.50;1.90;;;;;;;;;;4968370;28;20027;-77
2024/01/01 01:22:48;;;;;;;2.83;1.95;;;;;;;;;;4976760;28;20066;-77
2024/01/01 01:25:13;;;;;;;2.83;1.98;;;;;;;;;;4978682;28;20058;-77
2024/01/01 01:27:40;;;;;;;1.70;1.60;;;;;;;;;;4960343;28;20479;-77
2024/01/01 01:30:06;;;;;;;2.10;1.70;;;;;;;;;;4960312;28;20031;-78
2024/01/01 01:32:31;;;;;;;4.13;2.33;;;;;;;;;;4978730;28;20555;-77
2024/01/01 01:34:57;;;;;;;2.78;2.05;;;;;;;;;;4960713;28;20081;-78
2024/01/01 01:37:22;;;;;;;5.32;1.70;;;;;;;;;;4978771;28;20027;-78
2024/01/01 01:39:47;;;;;;;2.50;2.03;;;;;;;;;;4993235;28;20045;-78
2024/01/01 01:42:13;;;;;;;2.22;1.80;;;;;;;;;;4997756;28;20030;-76
2024/01/01 01:44:38;;;;;;;3.47;1.92;;;;;;;;;;4980451;28;20030;-78
2024/01/01 01:47:03;;;;;;;3.13;2.40;;;;;;;;;;4975856;28;20035;-77
2024/01/01 01:49:30;;;;;;;2.42;1.60;;;;;;;;;;4976859;28;20512;-77
2024/01/01 01:51:57;;;;;;;3.53;1.85;;;;;;;;;;4977902;28;20034;-78
2024/01/01 01:54:23;;;;;;;2.58;2.00;;;;;;;;;;4984540;28;21620;-79
2024/01/01 01:56:51;;;;;;;2.95;1.67;;;;;;;;;;4997218;28;20037;-78
2024/01/01 01:59:17;;;;;;;2.00;1.73;;;;;;;;;;4997759;28;20091;-78
2024/01/01 02:01:43;;;;;;;2.15;1.70;;;;;;;;;;4999721;28;21603;-77
2024/01/01 02:04:08;;;;;;;4.32;1.73;;;;;;;;;;4988523;28;20046;-77
2024/01/01 02:06:34;;;;;;;2.65;1.77;;;;;;;;;;4974546;28;20030;-77
2024/01/01 02:08:59;;;;;;;3.78;2.13;;;;;;;;;;4988209;28;20042;-77
2024/01/01 02:11:24;;;;;;;6.32;2.55;;;;;;;;;;4977321;28;20039;-77
2024/01/01 02:13:50;;;;;;;2.75;2.10;;;;;;;;;;4959308;28;20054;-78
2024/01/01 02:16:15;;;;;;;2.70;1.58;;;;;;;;;;4985212;28;20038;-78
2024/01/01 02:18:42;;;;;;;1.92;1.58;;;;;;;;;;4996454;28;20031;-78
2024/01/01 02:21:08;;;;;;;4.45;1.63;;;;;;;;;;4979078;28;20145;-78
2024/01/01 02:23:33;;;;;;;4.72;2.10;;;;;;;;;;4981365;28;20050;-78
2024/01/01 02:25:58;;;;;;;1.90;1.55;;;;;;;;;;4982688;28;20038;-78
2024/01/01 02:28:24;;;;;;;3.17;1.73;;;;;;;;;;4997876;28;20038;-77
2024/01/01 02:30:49;;;;;;;1.55;1.45;;;;;;;;;;4964884;28;20055;-77
2024/01/01 02:33:15;;;;;;;3.78;1.85;;;;;;;;;;4976371;28;20169;-77
2024/01/01 02:35:40;;;;;;;3.50;1.80;;;;;;;;;;4983323;28;20113;-77
2024/01/01 02:38:07;;;;;;;1.98;1.75;;;;;;;;;;4996417;28;20057;-77
2024/01/01 02:40:34;;;;;;;3.80;1.88;;;;;;;;;;4996140;28;20180;-77
2024/01/01 02:43:00;;;;;;;1.60;1.50;;;;;;;;;;4980062;28;20185;-77
2024/01/01 02:45:27;;;;;;;2.72;1.48;;;;;;;;;;4995781;28;20176;-77
2024/01/01 02:47:53;;;;;;;2.63;1.55;;;;;;;;;;4997295;28;20089;-77
2024/01/01 02:50:20;;;;;;;2.10;1.90;;;;;;;;;;4997002;28;20058;-76
2024/01/01 02:52:45;;;;;;;2.83;1.50;;;;;;;;;;4982951;28;20031;-78
2024/01/01 02:55:11;;;;;;;7.55;1.40;;;;;;;;;;4976588;28;20415;-77
2024/01/01 02:57:36;;;;;;;0.98;0.98;;;;;;;;;;4977584;28;20567;-77
2024/01/01 03:00:02;;;;;;;3.13;1.67;;;;;;;;;;4977849;28;20037;-77
2024/01/01 03:02:27;;;;;;;4.25;1.80;;;;;;;;;;4978042;28;20526;-78
2024/01/01 03:04:53;;;;;;;3.40;1.75;;;;;;;;;;4976999;28;20023;-77
2024/01/01 03:07:18;;;;;;;1.50;1.30;;;;;;;;;;4977605;28;20034;-78
2024/01/01 03:09:43;;;;;;;1.02;1.02;;;;;;;;;;4976171;28;20046;-78
2024/01/01 03:12:09;;;;;;;2.15;1.48;;;;;;;;;;4977941;28;20042;-79
2024/01/01 03:14:35;;;;;;;1.98;1.50;;;;;;;;;;4970531;28;20085;-77
2024/01/01 03:17:00;;;;;;;3.72;1.33;;;;;;;;;;4996508;28;20030;-78
2024/01/01 03:19:25;;;;;;;1.80;1.60;;;;;;;;;;4979473;28;20066;-78
2024/01/01 03:21:50;;;;;;;1.98;1.52;;;;;;;;;;4998646;28;20027;-77
2024/01/01 03:24:16;;;;;;;3.95;1.60;;;;;;;;;;4996273;28;20570;-77
2024/01/01 03:26:41;;;;;;;3.97;1.50;;;;;;;;;;4996905;28;20038;-78
2024/01/01 03:29:07;;;;;;;1.48;1.38;;;;;;;;;;4979194;28;20068;-78
2024/01/01 03:31:33;;;;;;;1.23;1.13;;;;;;;;;;4997966;28;20109;-77
2024/01/01 03:33:58;;;;;;;1.00;0.90;;;;;;;;;;4979111;28;20483;-78
2024/01/01 03:36:24;;;;;;;1.80;1.10;;;;;;;;;;4977456;28;20041;-77
2024/01/01 03:38:49;;;;;;;1.00;1.00;;;;;;;;;;4976419;28;20498;-78
2024/01/01 03:41:14;;;;;;;1.30;1.02;;;;;;;;;;4959310;28;20035;-78
2024/01/01 03:43:39;;;;;;;1.58;1.10;;;;;;;;;;4975540;28;20057;-78
2024/01/01 03:46:05;;;;;;;2.15;1.00;;;;;;;;;;4974567;28;20483;-79
2024/01/01 03:48:30;;;;;;;1.00;0.90;;;;;;;;;;4958602;28;20035;-77
2024/01/01 03:50:55;;;;;;;1.73;1.38;;;;;;;;;;4957713;28;20042;-78
2024/01/01 03:53:21;;;;;;;2.08;1.10;;;;;;;;;;4973819;28;20046;-77
2024/01/01 03:55:46;;;;;;;2.58;0.95;;;;;;;;;;4975461;28;20535;-77
2024/01/01 03:58:11;;;;;;;0.93;0.93;;;;;;;;;;4994352;28;20066;-78
2024/01/01 04:00:37;;;;;;;1.42;0.80;;;;;;;;;;4996979;28;20076;-79
2024/01/01 04:03:03;;;;;;;1.30;1.20;;;;;;;;;;4996027;28;20518;-78
2024/01/01 04:05:28;;;;;;;1.95;0.60;;;;;;;;;;4976713;28;20045;-78
2024/01/01 04:07:54;;;;;;;1.15;1.02;;;;;;;;;;4995876;28;20034;-78
2024/01/01 04:10:20;;;;;;;2.95;1.20;;;;;;;;;;4996212;28;20062;-79
2024/01/01 04:12:46;;;;;;;1.27;1.17;;;;;;;;;;4994766;28;20031;-77
2024/01/01 04:15:11;;;;;;;1.02;0.85;;;;;;;;;;4994812;28;20035;-77
2024/01/01 04:17:36;;;;;;;2.83;1.10;;;;;;;;;;4980172;28;20066;-78
2024/01/01 04:20:02;;;;;;;0.95;0.93;;;;;;;;;;4958101;28;20035;-78
2024/01/01 04:22:27;;;;;;;0.90;0.90;;;;;;;;;;4961648;28;20048;-78
2024/01/01 04:24:53;;;;;;;2.17;0.93;;;;;;;;;;4980567;28;20109;-79
2024/01/01 04:27:19;;;;;;;1.00;0.98;;;;;;;;;;4978361;28;20113;-79
2024/01/01 04:29:44;;;;;;;3.10;1.00;;;;;;;;;;4979820;28;20053;-78
2024/01/01 04:32:09;;;;;;;0.82;0.73;;;;;;;;;;4979239;28;20035;-77
2024/01/01 04:34:35;;;;;;;3.63;1.13;;;;;;;;;;4962923;28;20105;-78
2024/01/01 04:37:00;;;;;;;3.30;0.90;;;;;;;;;;4961679;28;20034;-77
2024/01/01 04:39:25;;;;;;;1.10;1.00;;;;;;;;;;4978114;28;20057;-78
2024/01/01 04:41:51;;;;;;;1.02;1.00;;;;;;;;;;4974963;28;20527;-78
2024/01/01 04:44:17;;;;;;;2.60;0.80;;;;;;;;;;4959700;28;20035;-78
2024/01/01 04:46:42;;;;;;;4.35;1.02;;;;;;;;;;4959830;28;20054;-78
2024/01/01 04:49:07;;;;;;;3.25;1.00;;;;;;;;;;4959516;29;20114;-77
2024/01/01 04:51:33;;;;;;;1.42;0.90;;;;;;;;;;4942711;29;20035;-79
2024/01/01 04:53:58;;;;;;;0.88;0.82;;;;;;;;;;4959326;28;20035;-77
2024/01/01 04:56:23;;;;;;;4.50;1.40;;;;;;;;;;4950666;28;20035;-78
2024/01/01 04:58:51;;;;;;;1.75;1.00;;;;;;;;;;4983001;28;20403;-77
2024/01/01 05:01:17;;;;;;;3.38;1.15;;;;;;;;;;4997290;28;20084;-76
2024/01/01 05:03:42;;;;;;;3.80;1.45;;;;;;;;;;4997324;28;20030;-76
2024/01/01 05:06:07;;;;;;;0.93;0.93;;;;;;;;;;4997895;28;20077;-78
2024/01/01 05:08:33;;;;;;;4.28;1.27;;;;;;;;;;4998348;28;20037;-78
2024/01/01 05:10:58;;;;;;;6.38;1.25;;;;;;;;;;4981495;28;20050;-77
2024/01/01 05:13:23;;;;;;;1.00;1.00;;;;;;;;;;4979815;28;20042;-78
2024/01/01 05:15:49;;;;;;;0.88;0.88;;;;;;;;;;4961068;28;20035;-77
2024/01/01 05:18:14;;;;;;;1.40;1.25;;;;;;;;;;4962053;28;20067;-77
2024/01/01 05:20:40;;;;;;;4.32;1.27;;;;;;;;;;4962472;28;20140;-79
2024/01/01 05:23:05;;;;;;;0.93;0.93;;;;;;;;;;4995022;28;20081;-77
2024/01/01 05:25:30;;;;;;;2.65;1.13;;;;;;;;;;4981728;28;20503;-78
2024/01/01 05:27:55;;;;;;;2.20;1.40;;;;;;;;;;4981201;28;20056;-78
2024/01/01 05:30:21;;;;;;;2.67;1.40;;;;;;;;;;4980118;28;20042;-77
2024/01/01 05:32:46;;;;;;;3.72;2.17;;;;;;;;;;4993654;28;20038;-78
2024/01/01 05:35:12;;;;;;;3.00;1.48;;;;;;;;;;4977856;28;20097;-78
2024/01/01 05:37:37;;;;;;;2.75;1.98;;;;;;;;;;4967793;28;20122;-77
2024/01/01 05:40:03;;;;;;;1.55;1.30;;;;;;;;;;4976909;28;20027;-77
2024/01/01 05:42:31;;;;;;;4.38;1.10;;;;;;;;;;4978024;28;20039;-79
2024/01/01 05:44:56;;;;;;;4.53;1.27;;;;;;;;;;4960947;28;20049;-78
2024/01/01 05:47:22;;;;;;;2.17;1.30;;;;;;;;;;4961990;28;20175;-77
2024/01/01 05:49:47;;;;;;;1.38;1.33;;;;;;;;;;4977749;28;20090;-77
2024/01/01 05:52:12;;;;;;;1.42;1.30;;;;;;;;;;4960854;28;20499;-77
2024/01/01 05:54:38;;;;;;;5.03;1.67;;;;;;;;;;4977325;28;20034;-78
2024/01/01 05:57:03;;;;;;;1.33;1.00;;;;;;;;;;4982868;28;20035;-78
2024/01/01 05:59:29;;;;;;;2.65;1.25;;;;;;;;;;4981700;28;20038;-77
2024/01/01 06:01:54;;;;;;;6.65;1.65;;;;;;;;;;4972463;28;20110;-77
2024/01/01 06:04:19;;;;;;;1.10;1.00;;;;;;;;;;4971771;28;20538;-79
2024/01/01 06:06:44;;;;;;;1.45;1.20;;;;;;;;;;4973652;28;20042;-77
2024/01/01 06:09:10;;;;;;;1.90;1.00;;;;;;;;;;4961469;28;20033;-79
2024/01/01 06:11:35;;;;;;;2.63;1.30;;;;;;;;;;4989900;28;20038;-77
2024/01/01 06:14:00;;;;;;;2.00;1.20;;;;;;;;;;4987339;28;20039;-77
2024/01/01 06:16:26;;;;;;;1.65;1.30;;;;;;;;;;4976374;28;20045;-78
2024/01/01 06:18:51;;;;;;;2.35;1.33;;;;;;;;;;4977975;28;20070;-79
2024/01/01 06:21:16;;;;;;;2.95;1.00;;;;;;;;;;4977331;28;20062;-77
2024/01/01 06:23:45;;;;;;;2.50;1.10;;;;;;;;;;4988712;28;20042;-78
2024/01/01 06:26:11;;;;;;;1.00;0.82;;;;;;;;;;4991036;28;20562;-78
2024/01/01 06:28:36;;;;;;;2.92;1.38;;;;;;;;;;4992307;28;20672;-77
2024/01/01 06:31:01;;;;;;;2.30;1.33;;;;;;;;;;4986834;28;20062;-77
2024/01/01 06:33:27;;;;;;;1.20;1.10;;;;;;;;;;4988228;28;20062;-77
2024/01/01 06:35:52;;;;;;;5.03;1.20;;;;;;;;;;4993239;28;20037;-78
2024/01/01 06:38:17;;;;;;;1.70;1.40;;;;;;;;;;4969524;28;20038;-78
2024/01/01 06:40:43;;;;;;;4.78;1.52;;;;;;;;;;4967426;28;20045;-78
2024/01/01 06:43:09;;;;;;;1.80;1.25;;;;;;;;;;4992564;28;20125;-77
2024/01/01 06:45:34;;;;;;;1.73;1.58;;;;;;;;;;4985739;28;20066;-78
2024/01/01 06:47:59;;;;;;;2.50;1.60;;;;;;;;;;4970119;28;20036;-76
2024/01/01 06:50:25;;;;;;;1.83;1.35;;;;;;;;;;4979886;28;20037;-79
2024/01/01 06:52:50;;;;;;;3.63;2.17;;;;;;;;;;4960662;28;20511;-78
2024/01/01 06:55:17;;;;;;;2.50;1.73;;;;;;;;;;4983231;28;20047;-77
2024/01/01 06:57:42;;;;;;;3.90;1.70;;;;;;;;;;4975794;28;20039;-77
2024/01/01 07:00:08;;;;;;;2.13;1.73;;;;;;;;;;4981137;28;20174;-76
2024/01/01 07:02:33;;;;;;;4.00;1.92;;;;;;;;;;4991729;28;20086;-78
2024/01/01 07:04:59;;;;;;;6.95;2.00;;;;;;;;;;4986465;28;20034;-77
2024/01/01 07:07:24;;;;;;;1.48;1.30;;;;;;;;;;4994016;28;20042;-77
2024/01/01 07:09:49;;;;;;;2.53;1.75;;;;;;;;;;4992982;28;20042;-77
2024/01/01 07:12:27;;;;;;;1.95;1.20;;;;;;;;;;4976379;28;20053;-77
2024/01/01 07:14:52;;;;;;;3.47;1.75;;;;;;;;;;4975432;28;20511;-77
2024/01/01 07:17:19;;;;;;;1.75;1.50;;;;;;;;;;4941805;28;20042;-76
2024/01/01 07:19:44;;;;;;;7.28;1.90;;;;;;;;;;4957081;28;20054;-78
2024/01/01 07:22:10;;;;;;;3.10;1.40;;;;;;;;;;4957897;28;20034;-78
2024/01/01 07:24:35;;;;;;;1.15;1.08;;;;;;;;;;4958271;28;20043;-77
2024/01/01 07:27:00;;;;;;;1.27;0.93;;;;;;;;;;4958287;28;20031;-78
2024/01/01 07:29:28;;;;;;;2.42;1.52;;;;;;;;;;4958987;28;20039;-77
2024/01/01 07:31:54;;;;;;;2.33;1.45;;;;;;;;;;4976525;28;20042;-77
2024/01/01 07:34:20;;;;;;;1.50;1.40;;;;;;;;;;4975811;28;20038;-78
2024/01/01 07:36:46;;;;;;;5.85;1.30;;;;;;;;;;4976496;28;20034;-78
2024/01/01 07:39:12;;;;;;;2.30;1.02;;;;;;;;;;4974262;28;20447;-77
2024/01/01 07:41:38;;;;;;;2.88;1.40;;;;;;;;;;4992608;28;20057;-77
2024/01/01 07:44:03;;;;;;;2.47;1.75;;;;;;;;;;4994241;28;20113;-77
2024/01/01 07:46:29;;;;;;;1.58;1.05;;;;;;;;;;4992913;28;20170;-77
2024/01/01 07:48:55;;;;;;;2.92;1.08;;;;;;;;;;4970821;28;20038;-77
2024/01/01 07:51:20;;;;;;;1.10;1.10;;;;;;;;;;4962436;28;20035;-78
2024/01/01 07:53:46;;;;;;;2.80;1.33;;;;;;;;;;4971303;28;20400;-77
2024/01/01 07:56:11;;;;;;;3.15;1.20;;;;;;;;;;4987044;28;20542;-78
2024/01/01 07:58:37;;;;;;;3.15;1.90;;;;;;;;;;4994156;28;20089;-77
2024/01/01 08:01:02;;;;;;;1.45;1.30;;;;;;;;;;4993592;28;20592;-77
2024/01/01 08:03:27;;;;;;;3.42;1.77;;;;;;;;;;4993568;28;20057;-78
2024/01/01 08:05:53;;;;;;;1.15;1.00;;;;;;;;;;4978103;28;20034;-78
2024/01/01 08:08:18;;;;;;;2.67;1.00;;;;;;;;;;4994503;28;20586;-77
2024/01/01 08:10:44;;;;;;;6.72;1.60;;;;;;;;;;4976605;28;20038;-78
2024/01/01 08:13:09;;;;;;;3.03;1.50;;;;;;;;;;4994430;28;20073;-77
2024/01/01 08:15:35;;;;;;;2.15;1.38;;;;;;;;;;4977680;28;20561;-78
2024/01/01 08:18:02;;;;;;;2.38;1.15;;;;;;;;;;4994460;28;20030;-77
2024/01/01 08:20:29;;;;;;;1.38;0.80;;;;;;;;;;4976265;28;20053;-78
2024/01/01 08:22:54;;;;;;;2.75;1.65;;;;;;;;;;4993709;28;20149;-77
2024/01/01 08:25:19;;;;;;;1.05;1.00;;;;;;;;;;4976798;28;20070;-77
2024/01/01 08:27:45;;;;;;;1.65;1.02;;;;;;;;;;4978995;28;20060;-77
2024/01/01 08:30:11;;;;;;;3.58;1.30;;;;;;;;;;4978445;28;20109;-77
2024/01/01 08:32:36;;;;;;;1.75;1.50;;;;;;;;;;4976653;28;20038;-77
2024/01/01 08:35:01;;;;;;;1.17;1.02;;;;;;;;;;4992584;28;20046;-77
2024/01/01 08:37:27;;;;;;;3.88;1.30;;;;;;;;;;4987436;28;20038;-78
2024/01/01 08:39:52;;;;;;;2.55;0.80;;;;;;;;;;4975494;28;20094;-78
2024/01/01 08:42:17;;;;;;;5.15;1.30;;;;;;;;;;4971017;28;20030;-78
2024/01/01 08:44:42;;;;;;;5.68;1.20;;;;;;;;;;4994753;28;20104;-76
2024/01/01 08:47:08;;;;;;;3.72;1.30;;;;;;;;;;4994090;28;20042;-77
2024/01/01 08:49:33;;;;;;;2.28;1.27;;;;;;;;;;4994925;28;20081;-77
2024/01/01 08:51:58;;;;;;;5.18;1.52;;;;;;;;;;4974981;28;20031;-78
2024/01/01 08:54:24;;;;;;;1.02;1.00;;;;;;;;;;4957068;28;20093;-78
2024/01/01 08:56:49;;;;;;;1.67;1.17;;;;;;;;;;4975131;28;20042;-77
2024/01/01 08:59:16;;;;;;;1.42;1.00;;;;;;;;;;4994276;28;20065;-78
2024/01/01 09:01:47;;;;;;;1.17;0.88;;;;;;;;;;4993942;28;20039;-78
2024/01/01 09:04:13;;;;;;;3.22;0.80;;;;;;;;;;4993945;28;20034;-77
2024/01/01 09:06:39;;;;;;;4.30;1.02;;;;;;;;;;4994701;28;20112;-77
2024/01/01 09:09:04;;;;;;;3.33;1.27;;;;;;;;;;4996188;28;20043;-77
2024/01/01 09:11:30;;;;;;;4.72;1.27;;;;;;;;;;4997132;28;20030;-77
2024/01/01 09:13:55;;;;;;;4.50;1.10;;;;;;;;;;4980125;28;20046;-77
2024/01/01 09:16:20;;;;;;;1.23;0.82;;;;;;;;;;4977229;28;20082;-77
2024/01/01 09:18:45;;;;;;;1.58;1.00;;;;;;;;;;4978322;28;20046;-78
2024/01/01 09:21:17;;;;;;;1.65;0.75;;;;;;;;;;4995540;28;20026;-79
2024/01/01 09:23:42;;;;;;;0.70;0.70;;;;;;;;;;4979934;28;20030;-78
2024/01/01 09:26:07;;;;;;;2.42;1.35;;;;;;;;;;4988119;28;20053;-78
2024/01/01 09:28:33;;;;;;;1.80;1.00;;;;;;;;;;4996624;28;20039;-78
2024/01/01 09:30:59;;;;;;;2.15;1.00;;;;;;;;;;4978910;28;20066;-78
2024/01/01 09:33:25;;;;;;;1.67;0.93;;;;;;;;;;4978504;28;20047;-78
2024/01/01 09:35:52;;;;;;;1.50;1.10;;;;;;;;;;4963400;28;20054;-78
2024/01/01 09:38:18;;;;;;;0.77;0.77;;;;;;;;;;4997469;28;20043;-77
2024/01/01 09:40:44;;;;;;;2.60;0.90;;;;;;;;;;4997017;28;20053;-77
2024/01/01 09:43:20;;;;;;;1.85;0.90;;;;;;;;;;4963073;28;20495;-78
2024/01/01 09:45:48;;;;;;;2.95;0.90;;;;;;;;;;4979210;28;20042;-78
2024/01/01 09:48:14;;;;;;;3.50;1.20;;;;;;;;;;4996550;28;20034;-78
2024/01/01 09:50:39;;;;;;;4.15;1.13;;;;;;;;;;4986149;28;20078;-78
2024/01/01 09:53:05;;;;;;;2.13;0.70;;;;;;;;;;4975659;28;20133;-77
2024/01/01 09:55:31;;;;;;;0.70;0.70;;;;;;;;;;4975256;28;20778;-76
2024/01/01 09:57:56;;;;;;;5.32;1.20;;;;;;;;;;4969038;28;20106;-77
2024/01/01 10:00:23;;;;;;;1.13;0.75;;;;;;;;;;4995255;28;20023;-79
2024/01/01 10:02:48;;;;;;;1.95;0.90;;;;;;;;;;4997032;28;20033;-78
2024/01/01 10:05:14;;;;;;;0.60;0.60;;;;;;;;;;4996683;28;20034;-76
2024/01/01 10:07:40;;;;;;;1.05;0.77;;;;;;;;;;4996208;28;20042;-77
2024/01/01 10:10:06;;;;;;;1.27;0.90;;;;;;;;;;4995955;28;20094;-78
2024/01/01 10:12:34;;;;;;;0.70;0.70;;;;;;;;;;4995384;28;20042;-77
2024/01/01 10:14:59;;;;;;;1.70;0.80;;;;;;;;;;4983833;28;20090;-78
2024/01/01 10:17:25;;;;;;;0.85;0.77;;;;;;;;;;4976792;28;20047;-78
2024/01/01 10:19:51;;;;;;;0.77;0.60;;;;;;;;;;4976284;28;20046;-78
2024/01/01 10:22:18;;;;;;;2.40;1.17;;;;;;;;;;4976759;28;20049;-77
2024/01/01 10:24:45;;;;;;;1.20;1.05;;;;;;;;;;4976274;28;20148;-79
2024/01/01 10:27:13;;;;;;;0.70;0.68;;;;;;;;;;4976961;28;20027;-79
2024/01/01 10:29:38;;;;;;;6.05;0.95;;;;;;;;;;4977445;28;20035;-78
2024/01/01 10:32:06;;;;;;;1.40;0.88;;;;;;;;;;4975842;28;20049;-78
2024/01/01 10:34:31;;;;;;;1.45;0.98;;;;;;;;;;4965224;28;20038;-78
2024/01/01 10:36:58;;;;;;;4.07;1.55;;;;;;;;;;4995648;28;20042;-79
2024/01/01 10:39:24;;;;;;;2.22;0.85;;;;;;;;;;4982422;28;20472;-78
2024/01/01 10:41:50;;;;;;;0.73;0.73;;;;;;;;;;4992544;28;20053;-78
2024/01/01 10:44:16;;;;;;;9.00;1.73;;;;;;;;;;4978285;28;20045;-79
2024/01/01 10:46:46;;;;;;;2.58;1.10;;;;;;;;;;4995351;28;20042;-78
2024/01/01 10:49:16;;;;;;;3.13;0.98;;;;;;;;;;4978677;28;20718;-77
2024/01/01 10:52:23;;;;;;;2.65;1.00;;;;;;;;;;4996364;28;20041;-77
2024/01/01 10:54:54;;;;;;;2.53;1.05;;;;;;;;;;4946660;28;20034;-77
2024/01/01 10:58:00;;;;;;;2.50;1.00;;;;;;;;;;4975680;28;20063;-77
2024/01/01 11:00:32;;;;;;;5.28;1.63;;;;;;;;;;4975535;28;20069;-78
2024/01/01 11:02:58;;;;;;;10.32;1.58;;;;;;;;;;4975824;28;20035;-79
2024/01/01 11:05:33;;;;;;;1.02;0.88;;;;;;;;;;4989430;28;20650;-78
2024/01/01 11:08:01;;;;;;;2.28;1.00;;;;;;;;;;4987676;28;20038;-78
2024/01/01 11:10:45;;;;;;;5.05;1.10;;;;;;;;;;4975396;28;20057;-77
2024/01/01 11:13:33;;;;;;;2.65;1.02;;;;;;;;;;4976189;28;20038;-76
2024/01/01 11:16:00;;;;;;;5.07;0.90;;;;;;;;;;4969502;28;20084;-77
2024/01/01 11:18:34;;;;;;;2.13;0.90;;;;;;;;;;4994503;28;20430;-78
2024/01/01 11:21:06;;;;;;;1.42;0.90;;;;;;;;;;4995503;28;20116;-78
2024/01/01 11:23:47;;;;;;;4.45;1.23;;;;;;;;;;4994508;28;20145;-78
2024/01/01 11:26:33;;;;;;;3.95;0.98;;;;;;;;;;4993964;28;20065;-77
2024/01/01 11:29:06;;;;;;;1.13;0.88;;;;;;;;;;4976633;28;20064;-76
2024/01/01 11:31:33;;;;;;;4.30;1.50;;;;;;;;;;4976321;28;20133;-78
2024/01/01 11:34:01;;;;;;;2.50;0.98;;;;;;;;;;4975795;28;20063;-76
2024/01/01 11:36:27;;;;;;;1.45;1.17;;;;;;;;;;4976770;28;20154;-77
2024/01/01 11:38:53;;;;;;;5.65;1.10;;;;;;;;;;4980161;28;20102;-78
2024/01/01 11:41:23;;;;;;;3.05;0.60;;;;;;;;;;4975519;28;20500;-78
2024/01/01 11:43:48;;;;;;;6.25;1.52;;;;;;;;;;4974753;28;20047;-79
2024/01/01 11:46:25;;;;;;;1.42;0.90;;;;;;;;;;4975271;28;20035;-77
2024/01/01 11:48:58;;;;;;;5.18;0.82;;;;;;;;;;4975055;28;20030;-78
2024/01/01 11:51:24;;;;;;;1.80;1.30;;;;;;;;;;4980692;28;20130;-78
2024/01/01 11:54:03;;;;;;;3.00;0.70;;;;;;;;;;4994120;28;20058;-77
2024/01/01 11:56:28;;;;;;;1.20;0.80;;;;;;;;;;4993520;28;20117;-77
2024/01/01 11:58:54;;;;;;;3.25;0.80;;;;;;;;;;4976234;28;20058;-77
2024/01/01 12:01:19;;;;;;;2.95;1.00;;;;;;;;;;4993315;28;20026;-78
2024/01/01 12:03:45;;;;;;;2.55;1.10;;;;;;;;;;4993156;28;20042;-77
2024/01/01 12:06:11;;;;;;;4.00;1.00;;;;;;;;;;4976758;28;20026;-78
2024/01/01 12:08:36;;;;;;;2.28;1.13;;;;;;;;;;4978021;28;20022;-78
2024/01/01 12:11:02;;;;;;;4.10;0.82;;;;;;;;;;4994683;28;20720;-77
2024/01/01 12:13:27;;;;;;;1.15;0.80;;;;;;;;;;4994131;28;20077;-78
2024/01/01 12:15:53;;;;;;;3.47;1.10;;;;;;;;;;4994649;28;20031;-78
2024/01/01 12:18:18;;;;;;;1.20;0.70;;;;;;;;;;4971641;28;20019;-78
2024/01/01 12:20:44;;;;;;;2.17;0.70;;;;;;;;;;4975092;28;20053;-77
2024/01/01 12:23:11;;;;;;;2.28;1.02;;;;;;;;;;4973978;28;20097;-78
2024/01/01 12:25:36;;;;;;;1.02;0.70;;;;;;;;;;4987349;28;20402;-77
2024/01/01 12:28:05;;;;;;;4.80;1.30;;;;;;;;;;4993573;28;20030;-77
2024/01/01 12:30:35;;;;;;;4.00;1.08;;;;;;;;;;4976506;28;20575;-78
2024/01/01 12:33:01;;;;;;;0.50;0.40;;;;;;;;;;4994576;28;20088;-78
2024/01/01 12:35:26;;;;;;;1.85;0.82;;;;;;;;;;4976848;28;20034;-78
2024/01/01 12:37:52;;;;;;;0.73;0.60;;;;;;;;;;4994360;28;20035;-77
2024/01/01 12:40:18;;;;;;;3.00;0.90;;;;;;;;;;4993820;28;20194;-78
2024/01/01 12:42:44;;;;;;;4.57;1.05;;;;;;;;;;4998104;28;20189;-78
2024/01/01 12:45:12;;;;;;;1.08;1.00;;;;;;;;;;4978634;28;20035;-78
2024/01/01 12:47:38;;;;;;;5.90;1.58;;;;;;;;;;4979073;28;20525;-77
2024/01/01 12:50:05;;;;;;;5.60;1.08;;;;;;;;;;4992825;28;20042;-77
2024/01/01 12:52:30;;;;;;;0.98;0.80;;;;;;;;;;4997580;28;20052;-78
2024/01/01 12:54:55;;;;;;;1.92;0.88;;;;;;;;;;4979533;28;20527;-78
2024/01/01 12:57:21;;;;;;;3.17;0.75;;;;;;;;;;4981437;28;20041;-78
2024/01/01 12:59:46;;;;;;;1.55;0.70;;;;;;;;;;4979900;28;20038;-78
2024/01/01 13:02:11;;;;;;;1.38;1.00;;;;;;;;;;4996528;28;20033;-78
2024/01/01 13:04:36;;;;;;;2.53;0.95;;;;;;;;;;4972100;28;20069;-77
2024/01/01 13:07:03;;;;;;;6.28;1.10;;;;;;;;;;4977010;28;20101;-78
2024/01/01 13:09:28;;;;;;;3.88;1.50;;;;;;;;;;4979028;28;20514;-77
2024/01/01 13:11:53;;;;;;;1.15;0.52;;;;;;;;;;4960965;28;20027;-78
2024/01/01 13:14:19;;;;;;;3.33;0.80;;;;;;;;;;4976925;28;20053;-78
2024/01/01 13:16:47;;;;;;;5.88;1.00;;;;;;;;;;4959187;28;20432;-79
2024/01/01 13:19:13;;;;;;;1.88;1.10;;;;;;;;;;4962365;28;20524;-79
2024/01/01 13:21:38;;;;;;;2.53;0.70;;;;;;;;;;4996985;28;20117;-77
2024/01/01 13:24:04;;;;;;;2.50;1.02;;;;;;;;;;4996563;28;20030;-76
2024/01/01 13:26:29;;;;;;;3.40;1.00;;;;;;;;;;4993918;28;20097;-77
2024/01/01 13:28:54;;;;;;;3.92;1.20;;;;;;;;;;4976810;28;20038;-79
2024/01/01 13:31:21;;;;;;;2.17;0.73;;;;;;;;;;4977452;28;20526;-78
2024/01/01 13:33:46;;;;;;;2.45;0.73;;;;;;;;;;4996154;28;20088;-76
2024/01/01 13:36:12;;;;;;;2.55;1.08;;;;;;;;;;4987970;28;20027;-78
2024/01/01 13:38:38;;;;;;;0.95;0.75;;;;;;;;;;4976044;28;20031;-78
2024/01/01 13:41:04;;;;;;;3.85;1.67;;;;;;;;;;4982587;28;20035;-77
2024/01/01 13:43:29;;;;;;;4.55;1.17;;;;;;;;;;4988989;28;20038;-78
2024/01/01 13:45:55;;;;;;;0.70;0.70;;;;;;;;;;4996060;28;20057;-78
2024/01/01 13:48:20;;;;;;;1.90;0.88;;;;;;;;;;4995448;28;20027;-79
2024/01/01 13:50:46;;;;;;;0.73;0.73;;;;;;;;;;4968130;28;20065;-79
2024/01/01 13:53:12;;;;;;;6.88;0.73;;;;;;;;;;4986870;28;20034;-79
2024/01/01 13:55:37;;;;;;;1.90;1.25;;;;;;;;;;4982834;28;20034;-79
2024/01/01 13:58:06;;;;;;;1.73;0.82;;;;;;;;;;4987150;28;20037;-79
2024/01/01 14:00:38;;;;;;;1.83;0.55;;;;;;;;;;4983453;28;20523;-78
2024/01/01 14:03:03;;;;;;;2.03;0.80;;;;;;;;;;5000854;28;20110;-77
2024/01/01 14:05:28;;;;;;;0.70;0.57;;;;;;;;;;4989499;28;20035;-80
2024/01/01 14:07:54;;;;;;;3.45;1.40;;;;;;;;;;4991935;28;20031;-80
2024/01/01 14:10:19;;;;;;;1.88;0.90;;;;;;;;;;4991023;28;20104;-78
2024/01/01 14:12:46;;;;;;;2.58;0.70;;;;;;;;;;4995537;28;20043;-78
2024/01/01 14:15:12;;;;;;;2.25;0.88;;;;;;;;;;4977562;28;20519;-78
2024/01/01 14:17:37;;;;;;;3.70;1.15;;;;;;;;;;5000549;28;20033;-78
2024/01/01 14:20:06;;;;;;;9.10;1.13;;;;;;;;;;5000583;28;20027;-79
2024/01/01 14:22:32;;;;;;;1.23;0.80;;;;;;;;;;4964414;28;20057;-78
2024/01/01 14:24:58;;;;;;;5.07;1.40;;;;;;;;;;4955793;28;20038;-79
2024/01/01 14:27:23;;;;;;;0.63;0.63;;;;;;;;;;4997075;28;20053;-79
2024/01/01 14:29:49;;;;;;;0.70;0.60;;;;;;;;;;4996672;28;20503;-78
2024/01/01 14:32:14;;;;;;;1.80;0.90;;;;;;;;;;4971631;28;20031;-80
2024/01/01 14:34:40;;;;;;;1.25;0.80;;;;;;;;;;4989673;28;20041;-79
2024/01/01 14:37:08;;;;;;;4.07;1.10;;;;;;;;;;4999085;28;20098;-78